createdAt,value
2023-03-29T00:02:30.981Z,6.28
2023-03-29T00:05:02.118Z,5.18
2023-03-29T00:07:30.313Z,3.70
2023-03-29T00:09:58.061Z,5.15
2023-03-29T00:12:25.560Z,5.65
2023-03-29T00:14:52.829Z,5.95
2023-03-29T00:17:19.729Z,4.93
2023-03-29T00:19:47.183Z,5.38
2023-03-29T00:22:14.450Z,7.35
2023-03-29T00:24:41.461Z,6.68
2023-03-29T00:27:08.398Z,5.95
2023-03-29T00:29:35.643Z,5.35
2023-03-29T00:32:02.426Z,5.70
2023-03-29T00:34:32.310Z,7.07
2023-03-29T00:36:59.192Z,6.28
2023-03-29T00:39:27.912Z,7.53
2023-03-29T00:41:55.306Z,4.30
2023-03-29T00:44:56.272Z,5.97
2023-03-29T00:47:29.226Z,5.03
2023-03-29T00:50:01.609Z,6.82
2023-03-29T00:52:32.095Z,6.00
2023-03-29T00:55:04.195Z,4.80
2023-03-29T00:57:32.584Z,7.70
2023-03-29T01:00:01.336Z,6.13
2023-03-29T01:02:34.517Z,4.70
2023-03-29T01:05:09.703Z,7.28
2023-03-29T01:07:48.034Z,5.88
2023-03-29T01:10:21.465Z,6.45
2023-03-29T01:12:53.439Z,6.07
2023-03-29T01:15:25.533Z,6.97
2023-03-29T01:17:53.854Z,7.47
2023-03-29T01:20:56.336Z,5.90
2023-03-29T01:23:45.931Z,6.47
2023-03-29T01:26:21.522Z,7.03
2023-03-29T01:29:00.281Z,7.78
2023-03-29T01:31:31.084Z,8.18
2023-03-29T01:34:37.281Z,8.45
2023-03-29T01:37:28.220Z,10.15
2023-03-29T01:39:55.196Z,7.80
2023-03-29T01:43:00.658Z,8.35
2023-03-29T01:45:32.199Z,10.10
2023-03-29T01:48:13.993Z,12.75
2023-03-29T01:50:43.539Z,12.40
2023-03-29T01:55:47.236Z,13.68
2023-03-29T01:58:16.482Z,8.57
2023-03-29T02:00:45.179Z,11.40
2023-03-29T02:03:14.846Z,12.87
2023-03-29T02:05:43.102Z,15.05
2023-03-29T02:08:14.377Z,13.50
2023-03-29T02:10:41.937Z,12.55
2023-03-29T02:13:08.792Z,14.57
2023-03-29T02:15:35.997Z,11.15
2023-03-29T02:18:03.894Z,10.38
2023-03-29T02:20:36.926Z,12.13
2023-03-29T02:23:14.693Z,13.57
2023-03-29T02:25:43.161Z,14.52
2023-03-29T02:28:10.047Z,13.55
2023-03-29T02:31:14.863Z,14.70
2023-03-29T02:33:46.859Z,9.85
2023-03-29T02:36:18.447Z,15.93
2023-03-29T02:38:46.299Z,17.30
2023-03-29T02:41:14.108Z,15.48
2023-03-29T02:43:42.316Z,15.93
2023-03-29T02:46:12.478Z,17.38
2023-03-29T02:48:40.877Z,17.48
2023-03-29T02:51:27.479Z,13.63
2023-03-29T02:54:03.128Z,13.35
2023-03-29T02:56:30.279Z,15.88
2023-03-29T02:58:57.083Z,13.23
2023-03-29T03:01:24.670Z,16.50
2023-03-29T03:03:52.007Z,17.98
2023-03-29T03:06:19.031Z,14.80
2023-03-29T03:08:45.857Z,14.07
2023-03-29T03:11:12.766Z,13.77
2023-03-29T03:13:39.633Z,16.45
2023-03-29T03:16:07.941Z,14.25
2023-03-29T03:18:34.800Z,14.55
2023-03-29T03:21:01.865Z,13.98
2023-03-29T03:23:29.570Z,15.52
2023-03-29T03:25:56.986Z,18.85
2023-03-29T03:28:24.368Z,17.73
2023-03-29T03:30:51.394Z,13.07
2023-03-29T03:33:19.420Z,16.27
2023-03-29T03:35:47.995Z,15.02
2023-03-29T03:38:15.320Z,11.18
2023-03-29T03:40:42.565Z,16.25
2023-03-29T03:43:09.770Z,12.95
2023-03-29T03:45:36.625Z,13.13
2023-03-29T03:48:03.656Z,14.43
2023-03-29T03:50:30.544Z,14.85
2023-03-29T03:52:57.584Z,15.48
2023-03-29T03:55:24.528Z,12.85
2023-03-29T03:57:52.063Z,14.15
2023-03-29T04:00:22.845Z,14.40
2023-03-29T04:02:50.697Z,16.77
2023-03-29T04:05:17.654Z,14.98
2023-03-29T04:07:44.534Z,16.20
2023-03-29T04:10:11.874Z,16.60
2023-03-29T04:12:39.219Z,17.17
2023-03-29T04:15:06.824Z,16.80
2023-03-29T04:17:33.920Z,17.58
2023-03-29T04:20:02.258Z,12.23
2023-03-29T04:22:29.350Z,13.00
2023-03-29T04:24:56.273Z,13.93
2023-03-29T04:27:23.117Z,15.88
2023-03-29T04:29:49.968Z,14.23
2023-03-29T04:32:16.848Z,14.05
2023-03-29T04:34:43.665Z,16.00
2023-03-29T04:37:11.383Z,16.23
2023-03-29T04:39:38.845Z,15.77
2023-03-29T04:42:06.022Z,16.52
2023-03-29T04:44:33.998Z,17.60
2023-03-29T04:47:01.697Z,16.55
2023-03-29T04:49:28.983Z,14.98
2023-03-29T04:51:55.940Z,15.02
2023-03-29T04:54:22.859Z,15.32
2023-03-29T04:56:51.676Z,20.27
2023-03-29T04:59:18.794Z,17.35
2023-03-29T05:01:46.626Z,17.27
2023-03-29T05:04:14.112Z,17.90
2023-03-29T05:06:42.270Z,17.98
2023-03-29T05:09:09.098Z,16.88
2023-03-29T05:11:36.273Z,19.27
2023-03-29T05:14:07.178Z,19.10
2023-03-29T05:16:34.697Z,15.75
2023-03-29T05:19:01.790Z,18.38
2023-03-29T05:21:28.644Z,22.08
2023-03-29T05:23:55.891Z,17.90
2023-03-29T05:26:23.571Z,18.77
2023-03-29T05:28:50.898Z,21.85
2023-03-29T05:31:18.165Z,18.85
2023-03-29T05:33:45.114Z,23.40
2023-03-29T05:36:14.675Z,15.90
2023-03-29T05:41:10.802Z,26.17
2023-03-29T05:43:38.417Z,23.75
2023-03-29T05:46:06.234Z,17.20
2023-03-29T05:48:33.549Z,16.38
2023-03-29T05:51:00.671Z,23.55
2023-03-29T05:53:28.639Z,23.13
2023-03-29T05:55:56.074Z,19.63
2023-03-29T05:58:23.011Z,23.63
2023-03-29T06:00:51.307Z,24.67
2023-03-29T06:03:22.131Z,25.63
2023-03-29T06:05:55.210Z,22.98
2023-03-29T06:08:22.323Z,17.13
2023-03-29T06:10:50.293Z,32.60
2023-03-29T06:13:17.524Z,16.70
2023-03-29T06:15:45.086Z,16.15
2023-03-29T06:18:12.508Z,20.40
2023-03-29T06:20:39.482Z,22.08
2023-03-29T06:23:06.359Z,21.27
2023-03-29T06:25:34.168Z,23.52
2023-03-29T06:28:01.210Z,16.77
2023-03-29T06:30:28.766Z,25.98
2023-03-29T06:32:55.937Z,20.70
2023-03-29T06:35:22.920Z,23.13
2023-03-29T06:37:49.984Z,22.00
2023-03-29T06:40:19.191Z,24.55
2023-03-29T06:42:47.649Z,24.58
2023-03-29T06:45:14.613Z,24.27
2023-03-29T06:47:42.038Z,17.23
2023-03-29T06:50:09.395Z,17.30
2023-03-29T06:52:36.766Z,19.88
2023-03-29T06:55:07.572Z,17.13
2023-03-29T06:57:34.578Z,20.25
2023-03-29T07:00:01.681Z,20.02
2023-03-29T07:02:29.116Z,15.75
2023-03-29T07:04:56.224Z,19.42
2023-03-29T07:07:27.374Z,17.33
2023-03-29T07:09:54.557Z,14.98
2023-03-29T07:12:24.515Z,19.38
2023-03-29T07:14:51.376Z,14.95
2023-03-29T07:17:18.564Z,13.15
2023-03-29T07:19:45.380Z,14.48
2023-03-29T07:22:12.234Z,13.93
2023-03-29T07:24:39.089Z,15.98
2023-03-29T07:27:06.004Z,13.75
2023-03-29T07:29:33.040Z,16.65
2023-03-29T07:32:00.295Z,15.13
2023-03-29T07:34:27.204Z,11.73
2023-03-29T07:36:54.637Z,15.50
2023-03-29T07:39:22.362Z,15.32
2023-03-29T07:41:49.190Z,13.02
2023-03-29T07:44:19.272Z,14.35
2023-03-29T07:46:46.155Z,12.85
2023-03-29T07:49:12.977Z,15.27
2023-03-29T07:51:39.885Z,14.70
2023-03-29T07:54:06.791Z,13.07
2023-03-29T07:56:33.940Z,13.00
2023-03-29T07:59:00.856Z,12.38
2023-03-29T08:01:27.722Z,10.75
2023-03-29T08:03:55.150Z,11.00
2023-03-29T08:06:22.262Z,12.48
2023-03-29T08:08:49.105Z,10.68
2023-03-29T08:11:16.053Z,12.95
2023-03-29T08:13:42.900Z,12.63
2023-03-29T08:16:09.846Z,11.50
2023-03-29T08:18:36.650Z,14.90
2023-03-29T08:21:04.311Z,12.20
2023-03-29T08:23:31.681Z,11.73
2023-03-29T08:25:58.545Z,12.80
2023-03-29T08:28:25.388Z,11.25
2023-03-29T08:30:52.849Z,11.30
2023-03-29T08:33:19.758Z,12.10
2023-03-29T08:35:47.028Z,11.85
2023-03-29T08:38:14.300Z,12.57
2023-03-29T08:40:41.847Z,13.95
2023-03-29T08:43:36.077Z,11.77
2023-03-29T08:46:36.429Z,10.38
2023-03-29T08:49:06.196Z,8.75
2023-03-29T08:51:40.711Z,13.00
2023-03-29T08:54:25.513Z,9.48
2023-03-29T08:56:58.515Z,14.90
2023-03-29T08:59:29.885Z,11.85
2023-03-29T09:01:59.308Z,10.70
2023-03-29T09:06:59.344Z,11.60
2023-03-29T09:09:32.810Z,8.68
2023-03-29T09:12:11.941Z,12.05
2023-03-29T09:15:04.948Z,8.35
2023-03-29T09:17:38.010Z,10.18
2023-03-29T09:20:22.007Z,10.27
2023-03-29T09:22:55.046Z,8.48
2023-03-29T09:25:53.622Z,9.60
2023-03-29T09:28:37.052Z,7.95
2023-03-29T09:31:05.182Z,9.27
2023-03-29T09:33:45.181Z,11.18
2023-03-29T09:36:32.048Z,13.13
2023-03-29T09:38:59.660Z,9.30
2023-03-29T09:41:35.618Z,9.43
2023-03-29T09:44:12.696Z,10.80
2023-03-29T09:46:58.128Z,9.35
2023-03-29T09:49:33.144Z,9.43
2023-03-29T09:52:05.904Z,12.43
2023-03-29T09:54:32.944Z,11.77
2023-03-29T09:57:00.268Z,11.50
2023-03-29T09:59:27.147Z,13.23
2023-03-29T10:02:05.299Z,11.48
2023-03-29T10:04:32.496Z,11.77
2023-03-29T10:07:00.548Z,10.63
2023-03-29T10:09:30.317Z,10.65
2023-03-29T10:12:02.290Z,9.48
2023-03-29T10:14:50.352Z,11.68
2023-03-29T10:17:26.721Z,12.05
2023-03-29T10:19:57.828Z,10.63
2023-03-29T10:22:55.676Z,11.30
2023-03-29T10:25:33.686Z,11.13
2023-03-29T10:28:13.416Z,11.55
2023-03-29T10:30:40.462Z,11.18
2023-03-29T10:33:17.679Z,10.73
2023-03-29T10:35:46.781Z,12.73
2023-03-29T10:38:19.591Z,11.00
2023-03-29T10:40:49.000Z,10.00
2023-03-29T10:43:26.275Z,10.48
2023-03-29T10:46:05.827Z,10.45
2023-03-29T10:48:35.375Z,10.93
2023-03-29T10:53:33.017Z,10.27
2023-03-29T10:56:17.353Z,13.50
2023-03-29T10:58:54.961Z,11.38
2023-03-29T11:01:33.854Z,10.65
2023-03-29T11:04:04.101Z,10.55
2023-03-29T11:06:45.537Z,9.18
2023-03-29T11:09:41.375Z,11.43
2023-03-29T11:12:24.187Z,10.43
2023-03-29T11:15:34.253Z,10.20
2023-03-29T11:18:19.919Z,10.40
2023-03-29T11:21:10.727Z,9.70
2023-03-29T11:26:38.447Z,14.07
2023-03-29T11:29:35.456Z,8.95
2023-03-29T11:32:44.692Z,8.32
2023-03-29T11:35:29.428Z,9.52
2023-03-29T11:38:00.259Z,10.40
2023-03-29T11:40:48.408Z,10.13
2023-03-29T11:43:32.028Z,8.85
2023-03-29T11:46:18.959Z,9.13
2023-03-29T11:48:55.774Z,9.18
2023-03-29T11:51:56.911Z,10.15
2023-03-29T11:54:27.034Z,8.85
2023-03-29T11:57:33.101Z,8.32
2023-03-29T12:00:22.964Z,9.40
2023-03-29T12:02:58.115Z,8.35
2023-03-29T12:05:32.839Z,9.05
2023-03-29T12:08:07.183Z,8.95
2023-03-29T12:11:16.416Z,8.27
2023-03-29T12:13:57.303Z,9.23
2023-03-29T12:16:53.761Z,8.50
2023-03-29T12:19:43.832Z,9.30
2023-03-29T12:22:11.032Z,9.67
2023-03-29T12:24:41.632Z,9.13
2023-03-29T12:27:32.732Z,8.85
2023-03-29T12:30:19.425Z,8.40
2023-03-29T12:32:54.707Z,9.35
2023-03-29T12:35:30.851Z,9.50
2023-03-29T12:38:22.257Z,7.28
2023-03-29T12:40:56.328Z,8.32
2023-03-29T12:43:37.610Z,9.50
2023-03-29T12:46:10.046Z,8.63
2023-03-29T12:48:41.725Z,11.95
2023-03-29T12:51:13.861Z,10.40
2023-03-29T12:53:50.438Z,8.60
2023-03-29T12:56:21.747Z,11.00
2023-03-29T12:59:10.765Z,11.80
2023-03-29T13:01:41.350Z,10.95
2023-03-29T13:04:20.143Z,9.65
2023-03-29T13:06:46.903Z,9.65
2023-03-29T13:09:29.807Z,10.27
2023-03-29T13:12:12.072Z,10.68
2023-03-29T13:14:47.102Z,9.68
2023-03-29T13:17:34.910Z,11.05
2023-03-29T13:20:18.151Z,11.02
2023-03-29T13:22:44.987Z,9.55
2023-03-29T13:25:21.093Z,11.52
2023-03-29T13:28:01.456Z,11.18
2023-03-29T13:30:41.549Z,9.85
2023-03-29T13:33:17.333Z,11.63
2023-03-29T13:36:11.617Z,11.85
2023-03-29T13:38:50.497Z,10.23
2023-03-29T13:41:38.578Z,9.98
2023-03-29T13:44:26.096Z,10.35
2023-03-29T13:47:19.375Z,12.50
2023-03-29T13:49:57.269Z,11.25
2023-03-29T13:52:35.325Z,12.55
2023-03-29T13:55:11.756Z,10.77
2023-03-29T13:57:53.184Z,12.07
2023-03-29T14:00:29.341Z,11.32
2023-03-29T14:03:01.475Z,12.50
2023-03-29T14:05:35.952Z,10.63
2023-03-29T14:08:26.320Z,10.02
2023-03-29T14:10:54.149Z,10.70
2023-03-29T14:13:23.585Z,11.77
2023-03-29T14:18:21.869Z,12.00
2023-03-29T14:20:54.804Z,10.23
2023-03-29T14:23:27.549Z,12.77
2023-03-29T14:25:54.411Z,10.65
2023-03-29T14:28:27.870Z,14.00
2023-03-29T14:30:56.710Z,14.45
2023-03-29T14:33:33.484Z,11.85
2023-03-29T14:36:05.298Z,10.95
2023-03-29T14:38:32.632Z,11.35
2023-03-29T14:41:00.843Z,12.63
2023-03-29T14:43:31.066Z,9.75
2023-03-29T14:45:58.780Z,11.57
2023-03-29T14:48:26.355Z,11.32
2023-03-29T14:50:53.334Z,9.88
2023-03-29T14:53:22.542Z,11.13
2023-03-29T14:55:52.288Z,9.95
2023-03-29T14:58:37.751Z,9.88
2023-03-29T15:01:16.707Z,10.10
2023-03-29T15:03:49.499Z,9.40
2023-03-29T15:06:17.047Z,9.10
2023-03-29T15:08:57.570Z,11.57
2023-03-29T15:11:31.700Z,9.85
2023-03-29T15:14:16.934Z,11.38
2023-03-29T15:16:46.995Z,9.70
2023-03-29T15:19:17.503Z,10.38
2023-03-29T15:21:45.089Z,9.95
2023-03-29T15:24:28.431Z,10.40
2023-03-29T15:27:29.563Z,10.90
2023-03-29T15:30:02.763Z,11.32
2023-03-29T15:32:35.899Z,11.23
2023-03-29T15:35:09.410Z,11.90
2023-03-29T15:37:36.829Z,10.05
2023-03-29T15:40:09.873Z,11.30
2023-03-29T15:42:36.798Z,10.45
2023-03-29T15:45:07.430Z,10.90
2023-03-29T15:47:34.639Z,10.43
2023-03-29T15:50:01.560Z,9.70
2023-03-29T15:52:28.495Z,9.15
2023-03-29T15:54:55.352Z,10.75
2023-03-29T15:57:22.537Z,11.30
2023-03-29T15:59:49.571Z,9.25
2023-03-29T16:02:17.479Z,9.55
2023-03-29T16:04:44.486Z,9.85
2023-03-29T16:07:16.480Z,9.80
2023-03-29T16:09:43.952Z,10.27
2023-03-29T16:12:11.359Z,10.40
2023-03-29T16:14:38.629Z,10.82
2023-03-29T16:17:06.272Z,12.98
2023-03-29T16:19:33.820Z,10.90
2023-03-29T16:22:03.264Z,11.43
2023-03-29T16:26:59.827Z,12.13
2023-03-29T16:29:26.734Z,12.70
2023-03-29T16:31:54.411Z,16.48
2023-03-29T16:34:22.766Z,12.80
2023-03-29T16:36:50.692Z,12.40
2023-03-29T16:39:18.338Z,16.77
2023-03-29T16:41:48.402Z,13.07
2023-03-29T16:44:23.809Z,19.35
2023-03-29T16:46:53.799Z,13.63
2023-03-29T16:49:21.570Z,14.93
2023-03-29T16:51:48.685Z,13.15
2023-03-29T16:54:17.259Z,14.15
2023-03-29T16:56:44.329Z,14.60
2023-03-29T16:59:12.023Z,13.15
2023-03-29T17:01:40.766Z,13.95
2023-03-29T17:04:08.500Z,16.08
2023-03-29T17:06:35.964Z,12.63
2023-03-29T17:09:05.022Z,16.83
2023-03-29T17:11:32.025Z,12.32
2023-03-29T17:14:00.035Z,14.77
2023-03-29T17:16:29.042Z,15.23
2023-03-29T17:18:58.480Z,19.35
2023-03-29T17:21:25.406Z,18.45
2023-03-29T17:23:52.562Z,17.58
2023-03-29T17:26:19.448Z,17.98
2023-03-29T17:28:46.241Z,14.15
2023-03-29T17:31:13.293Z,16.45
2023-03-29T17:33:40.107Z,16.05
2023-03-29T17:36:07.881Z,14.02
2023-03-29T17:38:35.169Z,10.57
2023-03-29T17:41:03.734Z,16.00
2023-03-29T17:43:30.866Z,17.43
2023-03-29T17:45:57.734Z,18.58
2023-03-29T17:48:24.858Z,17.80
2023-03-29T17:50:52.038Z,15.07
2023-03-29T17:53:19.031Z,13.32
2023-03-29T17:55:46.039Z,15.48
2023-03-29T17:58:12.906Z,18.33
2023-03-29T18:00:39.900Z,10.75
2023-03-29T18:03:06.910Z,14.52
2023-03-29T18:05:35.426Z,15.85
2023-03-29T18:08:02.756Z,17.25
2023-03-29T18:10:29.879Z,11.38
2023-03-29T18:12:56.727Z,16.15
2023-03-29T18:15:23.629Z,16.90
2023-03-29T18:17:50.840Z,13.55
2023-03-29T18:20:17.876Z,13.05
2023-03-29T18:22:45.014Z,20.83
2023-03-29T18:25:11.809Z,14.95
2023-03-29T18:27:39.713Z,12.82
2023-03-29T18:30:08.666Z,19.85
2023-03-29T18:32:36.287Z,19.13
2023-03-29T18:35:03.608Z,17.67
2023-03-29T18:37:30.883Z,14.75
2023-03-29T18:39:57.731Z,20.77
2023-03-29T18:42:24.633Z,15.57
2023-03-29T18:44:51.552Z,14.25
2023-03-29T18:47:18.548Z,15.73
2023-03-29T18:49:45.611Z,19.05
2023-03-29T18:52:12.597Z,19.70
2023-03-29T18:54:39.464Z,13.48
2023-03-29T18:57:06.499Z,20.38
2023-03-29T18:59:35.971Z,14.10
2023-03-29T19:04:30.102Z,20.17
2023-03-29T19:06:57.074Z,23.15
2023-03-29T19:09:23.947Z,16.60
2023-03-29T19:11:51.065Z,17.85
2023-03-29T19:14:23.386Z,18.70
2023-03-29T19:16:51.882Z,19.02
2023-03-29T19:19:20.010Z,19.33
2023-03-29T19:21:47.413Z,19.35
2023-03-29T19:24:15.376Z,12.48
2023-03-29T19:26:43.652Z,17.35
2023-03-29T19:29:10.654Z,21.55
2023-03-29T19:31:38.025Z,22.35
2023-03-29T19:34:06.957Z,22.13
2023-03-29T19:36:34.047Z,16.55
2023-03-29T19:39:01.246Z,20.15
2023-03-29T19:41:28.612Z,22.63
2023-03-29T19:43:55.482Z,17.55
2023-03-29T19:46:22.451Z,20.17
2023-03-29T19:48:49.564Z,13.40
2023-03-29T19:51:16.792Z,18.98
2023-03-29T19:53:43.683Z,19.63
2023-03-29T19:56:11.081Z,19.95
2023-03-29T19:58:38.081Z,20.02
2023-03-29T20:01:05.143Z,19.40
2023-03-29T20:03:34.042Z,20.60
2023-03-29T20:06:01.555Z,23.27
2023-03-29T20:08:28.617Z,19.02
2023-03-29T20:11:07.365Z,19.38
2023-03-29T20:13:38.607Z,23.80
2023-03-29T20:16:14.864Z,18.15
2023-03-29T20:18:44.763Z,17.15
2023-03-29T20:21:18.953Z,25.55
2023-03-29T20:23:45.871Z,24.30
2023-03-29T20:26:13.042Z,21.70
2023-03-29T20:28:39.936Z,23.92
2023-03-29T20:31:10.676Z,23.17
2023-03-29T20:33:37.921Z,21.45
2023-03-29T20:36:06.570Z,23.77
2023-03-29T20:38:33.550Z,23.73
2023-03-29T20:41:00.583Z,25.00
2023-03-29T20:43:27.550Z,15.98
2023-03-29T20:45:55.385Z,24.52
2023-03-29T20:48:24.317Z,23.58
2023-03-29T20:50:51.504Z,28.08
2023-03-29T20:53:20.220Z,18.60
2023-03-29T20:55:47.875Z,21.58
2023-03-29T20:58:15.883Z,16.48
2023-03-29T21:00:43.840Z,19.48
2023-03-29T21:03:11.230Z,26.88
2023-03-29T21:05:38.948Z,20.55
2023-03-29T21:08:06.277Z,26.35
2023-03-29T21:10:33.428Z,30.65
2023-03-29T21:13:02.589Z,28.52
2023-03-29T21:17:58.406Z,22.70
2023-03-29T21:20:25.523Z,24.60
2023-03-29T21:22:52.402Z,24.65
2023-03-29T21:25:19.645Z,18.20
2023-03-29T21:27:46.921Z,30.60
2023-03-29T21:30:14.128Z,20.50
2023-03-29T21:32:41.264Z,32.00
2023-03-29T21:35:09.075Z,27.63
2023-03-29T21:37:36.055Z,26.52
2023-03-29T21:40:05.875Z,28.45
2023-03-29T21:42:34.181Z,23.67
2023-03-29T21:45:01.501Z,23.50
2023-03-29T21:47:29.080Z,31.50
2023-03-29T21:49:56.081Z,30.13
2023-03-29T21:52:22.948Z,22.77
2023-03-29T21:54:49.957Z,24.55
2023-03-29T21:57:16.904Z,25.83
2023-03-29T21:59:43.834Z,22.58
2023-03-29T22:02:10.902Z,19.65
2023-03-29T22:04:37.969Z,26.05
2023-03-29T22:07:06.202Z,24.65
2023-03-29T22:09:35.209Z,25.88
2023-03-29T22:12:02.940Z,24.70
2023-03-29T22:14:31.777Z,26.02
2023-03-29T22:16:58.657Z,26.60
2023-03-29T22:19:25.647Z,25.13
2023-03-29T22:21:52.518Z,25.80
2023-03-29T22:24:19.373Z,26.13
2023-03-29T22:26:47.000Z,24.95
2023-03-29T22:29:13.850Z,22.25
2023-03-29T22:31:40.929Z,25.73
2023-03-29T22:34:07.794Z,24.55
2023-03-29T22:36:36.167Z,21.67
2023-03-29T22:39:03.616Z,25.17
2023-03-29T22:41:30.853Z,25.50
2023-03-29T22:44:00.921Z,21.42
2023-03-29T22:46:27.959Z,25.05
2023-03-29T22:48:55.003Z,23.70
2023-03-29T22:51:21.939Z,19.52
2023-03-29T22:53:48.760Z,26.40
2023-03-29T22:56:16.817Z,22.58
2023-03-29T22:58:44.422Z,19.75
2023-03-29T23:01:11.800Z,25.25
2023-03-29T23:03:38.760Z,18.83
2023-03-29T23:06:06.027Z,21.60
2023-03-29T23:08:33.876Z,22.95
2023-03-29T23:11:01.624Z,21.80
2023-03-29T23:13:29.417Z,21.27
2023-03-29T23:15:58.962Z,19.33
2023-03-29T23:20:56.692Z,20.52
2023-03-29T23:23:25.152Z,17.67
2023-03-29T23:25:53.252Z,21.27
2023-03-29T23:28:24.514Z,19.08
2023-03-29T23:30:58.290Z,18.23
2023-03-29T23:33:36.143Z,15.35
2023-03-29T23:36:05.522Z,15.35
2023-03-29T23:41:02.504Z,17.13
2023-03-29T23:43:32.832Z,16.02
2023-03-29T23:46:05.175Z,16.65
2023-03-29T23:48:32.716Z,15.90
2023-03-29T23:50:59.987Z,16.85
2023-03-29T23:53:28.874Z,17.55
2023-03-29T23:56:00.433Z,17.85
2023-03-29T23:58:28.608Z,16.75
